This is the latest recevied weather packets stored in our database for station/object K4FB. If no packets are shown the sender has not sent any weather packets the latest 10 day(s).
| Time | Temp. | Humidity | Pressure | Rain* | Wind** | Luminosity | Snow |
|---|---|---|---|---|---|---|---|
| 1777900512 | 22.22° C | 70% | 1017.8 hPa | 0 mm | - | - | - |
| 1777899904 | 21.67° C | 72% | 1017.8 hPa | 0 mm | - | - | - |
| 1777897505 | 19.44° C | 79% | 1017.5 hPa | 0 mm | - | - | - |
| 1777896306 | 17.78° C | 85% | 1017.6 hPa | 0 mm | - | - | - |
| 1777891807 | 16.67° C | 88% | 1016.8 hPa | 0 mm | - | - | - |
| 1777888821 | 16.67° C | 86% | 1016.5 hPa | 0 mm | - | - | - |
| 1777887922 | 17.22° C | 85% | 1016.5 hPa | 0 mm | - | - | - |
| 1777887608 | 17.22° C | 85% | 1016.5 hPa | 0 mm | - | - | - |
| 1777884323 | 18.33° C | 83% | 1016.4 hPa | 0 mm | - | - | - |
| 1777883704 | 18.33° C | 83% | 1016.3 hPa | 0 mm | - | - | - |
| 1777881303 | 18.33° C | 82% | 1016.6 hPa | 0 mm | - | - | - |
| 1777880403 | 18.89° C | 81% | 1016.7 hPa | 0 mm | - | - | - |
| 1777877403 | 18.89° C | 81% | 1016.5 hPa | 0 mm | - | - | - |
| 1777876805 | 18.89° C | 81% | 1016.6 hPa | 0 mm | - | - | - |
| 1777874704 | 19.44° C | 80% | 1017.2 hPa | 0 mm | - | - | - |
| 1777873204 | 19.44° C | 79% | 1016.8 hPa | 0 mm | - | - | - |
| 1777871402 | 19.44° C | 79% | 1017.7 hPa | 0 mm | - | - | - |
| 1777869927 | 20° C | 79% | 1018 hPa | 0 mm | - | - | - |
| 1777867807 | 20.56° C | 77% | 1018.3 hPa | 0 mm | - | - | - |
| 1777867217 | 20.56° C | 77% | 1018.1 hPa | 0 mm | - | - | - |
| 1777864806 | 21.11° C | 76% | 1018.1 hPa | 0 mm | - | - | - |
| 1777863622 | 21.11° C | 75% | 1018.1 hPa | 0 mm | - | - | - |
| 1777859407 | 21.11° C | 74% | 1017.6 hPa | 0 mm | - | - | - |
| 1777858803 | 21.67° C | 74% | 1017.8 hPa | 0 mm | - | - | - |
| 1777857009 | 21.67° C | 72% | 1017.5 hPa | 0 mm | - | - | - |
* Rain latest hour (hover to see other rain measurements)
** Current wind speed in m/s (hover to see current wind gust speed)